sensor_id;sensor_type;location;lat;lon;timestamp;temperature;humidity
2945;DHT22;1482;51.398;7.128;2023-03-20T00:00:38;10.20;99.90
2945;DHT22;1482;51.398;7.128;2023-03-20T00:03:05;10.10;99.90
2945;DHT22;1482;51.398;7.128;2023-03-20T00:05:31;10.20;99.90
2945;DHT22;1482;51.398;7.128;2023-03-20T00:07:57;10.20;99.90
2945;DHT22;1482;51.398;7.128;2023-03-20T00:10:34;10.20;99.90
2945;DHT22;1482;51.398;7.128;2023-03-20T00:13:00;10.20;99.90
2945;DHT22;1482;51.398;7.128;2023-03-20T00:15:33;10.20;99.90
2945;DHT22;1482;51.398;7.128;2023-03-20T00:18:00;10.20;99.90
2945;DHT22;1482;51.398;7.128;2023-03-20T00:20:26;10.10;99.90
2945;DHT22;1482;51.398;7.128;2023-03-20T00:22:52;10.10;99.90
2945;DHT22;1482;51.398;7.128;2023-03-20T00:25:23;10.10;99.90
2945;DHT22;1482;51.398;7.128;2023-03-20T00:27:49;10.00;99.90
2945;DHT22;1482;51.398;7.128;2023-03-20T00:30:19;10.00;99.90
2945;DHT22;1482;51.398;7.128;2023-03-20T00:32:47;10.00;99.90
2945;DHT22;1482;51.398;7.128;2023-03-20T00:35:27;9.90;99.90
2945;DHT22;1482;51.398;7.128;2023-03-20T00:37:54;10.00;99.90
2945;DHT22;1482;51.398;7.128;2023-03-20T00:40:20;9.90;99.90
2945;DHT22;1482;51.398;7.128;2023-03-20T00:42:49;9.70;1.00
2945;DHT22;1482;51.398;7.128;2023-03-20T00:45:19;9.80;1.00
2945;DHT22;1482;51.398;7.128;2023-03-20T00:47:47;9.90;1.00
2945;DHT22;1482;51.398;7.128;2023-03-20T00:50:31;9.80;1.00
2945;DHT22;1482;51.398;7.128;2023-03-20T00:52:58;9.70;1.00
2945;DHT22;1482;51.398;7.128;2023-03-20T00:55:26;9.80;1.00
2945;DHT22;1482;51.398;7.128;2023-03-20T00:57:59;9.70;1.00
2945;DHT22;1482;51.398;7.128;2023-03-20T01:02:55;9.70;99.90
2945;DHT22;1482;51.398;7.128;2023-03-20T01:05:22;9.70;1.00
2945;DHT22;1482;51.398;7.128;2023-03-20T01:07:48;9.70;99.90
2945;DHT22;1482;51.398;7.128;2023-03-20T01:10:14;9.50;1.00
2945;DHT22;1482;51.398;7.128;2023-03-20T01:12:40;9.50;1.00
2945;DHT22;1482;51.398;7.128;2023-03-20T01:15:29;9.70;99.90
2945;DHT22;1482;51.398;7.128;2023-03-20T01:17:56;9.50;99.90
2945;DHT22;1482;51.398;7.128;2023-03-20T01:20:25;9.60;99.90
2945;DHT22;1482;51.398;7.128;2023-03-20T01:22:51;9.30;99.90
2945;DHT22;1482;51.398;7.128;2023-03-20T01:25:17;9.10;1.00
2945;DHT22;1482;51.398;7.128;2023-03-20T01:27:48;9.10;99.90
2945;DHT22;1482;51.398;7.128;2023-03-20T01:30:25;9.10;1.00
2945;DHT22;1482;51.398;7.128;2023-03-20T01:32:51;9.00;99.90
2945;DHT22;1482;51.398;7.128;2023-03-20T01:35:20;9.10;99.90
2945;DHT22;1482;51.398;7.128;2023-03-20T01:37:46;9.10;99.90
2945;DHT22;1482;51.398;7.128;2023-03-20T01:42:51;9.10;99.90
2945;DHT22;1482;51.398;7.128;2023-03-20T01:45:21;9.10;99.90
2945;DHT22;1482;51.398;7.128;2023-03-20T01:47:47;9.10;99.90
2945;DHT22;1482;51.398;7.128;2023-03-20T01:50:33;9.10;99.90
2945;DHT22;1482;51.398;7.128;2023-03-20T01:53:22;9.10;99.90
2945;DHT22;1482;51.398;7.128;2023-03-20T01:55:51;9.10;99.90
2945;DHT22;1482;51.398;7.128;2023-03-20T01:58:27;9.10;99.90
2945;DHT22;1482;51.398;7.128;2023-03-20T02:00:54;9.10;99.90
2945;DHT22;1482;51.398;7.128;2023-03-20T02:03:20;9.10;99.90
2945;DHT22;1482;51.398;7.128;2023-03-20T02:05:46;9.10;99.90
2945;DHT22;1482;51.398;7.128;2023-03-20T02:08:24;9.20;99.90
2945;DHT22;1482;51.398;7.128;2023-03-20T02:10:51;9.00;99.90
2945;DHT22;1482;51.398;7.128;2023-03-20T02:13:18;9.10;99.90
2945;DHT22;1482;51.398;7.128;2023-03-20T02:16:05;9.10;99.90
2945;DHT22;1482;51.398;7.128;2023-03-20T02:18:32;8.90;99.90
2945;DHT22;1482;51.398;7.128;2023-03-20T02:26:45;8.90;99.90
2945;DHT22;1482;51.398;7.128;2023-03-20T02:32:51;8.90;99.90
2945;DHT22;1482;51.398;7.128;2023-03-20T02:41:04;8.50;99.90
2945;DHT22;1482;51.398;7.128;2023-03-20T02:43:46;8.30;99.90
2945;DHT22;1482;51.398;7.128;2023-03-20T02:52:33;8.40;99.90
2945;DHT22;1482;51.398;7.128;2023-03-20T02:55:12;8.40;99.90
2945;DHT22;1482;51.398;7.128;2023-03-20T02:57:56;8.40;99.90
2945;DHT22;1482;51.398;7.128;2023-03-20T03:00:35;8.40;99.90
2945;DHT22;1482;51.398;7.128;2023-03-20T03:03:10;8.50;99.90
2945;DHT22;1482;51.398;7.128;2023-03-20T03:05:44;8.50;99.90
2945;DHT22;1482;51.398;7.128;2023-03-20T03:08:13;8.50;99.90
2945;DHT22;1482;51.398;7.128;2023-03-20T03:10:46;8.60;99.90
2945;DHT22;1482;51.398;7.128;2023-03-20T03:13:18;8.50;99.90
2945;DHT22;1482;51.398;7.128;2023-03-20T03:15:49;8.50;99.90
2945;DHT22;1482;51.398;7.128;2023-03-20T03:18:21;8.50;99.90
2945;DHT22;1482;51.398;7.128;2023-03-20T03:20:51;8.40;99.90
2945;DHT22;1482;51.398;7.128;2023-03-20T03:26:06;8.60;99.90
2945;DHT22;1482;51.398;7.128;2023-03-20T03:28:35;8.50;99.90
2945;DHT22;1482;51.398;7.128;2023-03-20T03:31:10;8.20;99.90
2945;DHT22;1482;51.398;7.128;2023-03-20T03:33:39;8.30;99.90
2945;DHT22;1482;51.398;7.128;2023-03-20T03:36:18;8.20;99.90
2945;DHT22;1482;51.398;7.128;2023-03-20T03:38:59;8.00;99.90
2945;DHT22;1482;51.398;7.128;2023-03-20T03:41:48;7.90;1.00
2945;DHT22;1482;51.398;7.128;2023-03-20T03:44:38;7.80;1.00
2945;DHT22;1482;51.398;7.128;2023-03-20T03:49:57;8.10;99.90
2945;DHT22;1482;51.398;7.128;2023-03-20T03:52:23;8.10;99.90
2945;DHT22;1482;51.398;7.128;2023-03-20T03:54:58;7.70;1.00
2945;DHT22;1482;51.398;7.128;2023-03-20T03:57:30;7.50;1.00
2945;DHT22;1482;51.398;7.128;2023-03-20T03:59:59;7.50;1.00
2945;DHT22;1482;51.398;7.128;2023-03-20T04:02:26;7.70;14.80
2945;DHT22;1482;51.398;7.128;2023-03-20T04:04:52;7.80;1.00
2945;DHT22;1482;51.398;7.128;2023-03-20T04:07:19;8.00;1.00
2945;DHT22;1482;51.398;7.128;2023-03-20T04:09:45;8.00;1.00
2945;DHT22;1482;51.398;7.128;2023-03-20T04:12:31;8.00;1.00
2945;DHT22;1482;51.398;7.128;2023-03-20T04:14:57;7.90;1.00
2945;DHT22;1482;51.398;7.128;2023-03-20T04:17:23;8.00;1.00
2945;DHT22;1482;51.398;7.128;2023-03-20T04:19:48;8.10;1.00
2945;DHT22;1482;51.398;7.128;2023-03-20T04:22:14;8.10;99.90
2945;DHT22;1482;51.398;7.128;2023-03-20T04:24:39;8.00;1.00
2945;DHT22;1482;51.398;7.128;2023-03-20T04:27:05;7.80;1.00
2945;DHT22;1482;51.398;7.128;2023-03-20T04:29:30;7.80;1.00
2945;DHT22;1482;51.398;7.128;2023-03-20T04:31:56;7.90;1.00
2945;DHT22;1482;51.398;7.128;2023-03-20T04:34:22;7.90;1.00
2945;DHT22;1482;51.398;7.128;2023-03-20T04:36:49;7.80;1.00
2945;DHT22;1482;51.398;7.128;2023-03-20T04:39:14;7.70;1.00
2945;DHT22;1482;51.398;7.128;2023-03-20T04:41:40;7.80;1.00
2945;DHT22;1482;51.398;7.128;2023-03-20T04:44:06;7.80;1.00
2945;DHT22;1482;51.398;7.128;2023-03-20T04:46:32;7.90;1.00
2945;DHT22;1482;51.398;7.128;2023-03-20T04:48:57;7.90;1.00
2945;DHT22;1482;51.398;7.128;2023-03-20T04:51:23;7.80;1.00
2945;DHT22;1482;51.398;7.128;2023-03-20T04:53:48;7.70;1.00
2945;DHT22;1482;51.398;7.128;2023-03-20T04:56:14;7.60;1.00
2945;DHT22;1482;51.398;7.128;2023-03-20T04:58:40;7.60;1.00
2945;DHT22;1482;51.398;7.128;2023-03-20T05:01:05;7.70;1.00
2945;DHT22;1482;51.398;7.128;2023-03-20T05:03:31;7.60;1.00
2945;DHT22;1482;51.398;7.128;2023-03-20T05:05:57;7.50;1.00
2945;DHT22;1482;51.398;7.128;2023-03-20T05:08:23;7.30;1.00
2945;DHT22;1482;51.398;7.128;2023-03-20T05:10:49;7.30;1.00
2945;DHT22;1482;51.398;7.128;2023-03-20T05:13:14;7.40;1.00
2945;DHT22;1482;51.398;7.128;2023-03-20T05:15:40;7.20;97.00
2945;DHT22;1482;51.398;7.128;2023-03-20T05:18:05;7.20;16.40
2945;DHT22;1482;51.398;7.128;2023-03-20T05:20:31;7.20;99.90
2945;DHT22;1482;51.398;7.128;2023-03-20T05:22:57;7.20;99.90
2945;DHT22;1482;51.398;7.128;2023-03-20T05:25:22;7.10;99.90
2945;DHT22;1482;51.398;7.128;2023-03-20T05:27:48;7.10;99.90
2945;DHT22;1482;51.398;7.128;2023-03-20T05:30:14;7.30;99.90
2945;DHT22;1482;51.398;7.128;2023-03-20T05:32:39;7.30;99.90
2945;DHT22;1482;51.398;7.128;2023-03-20T05:35:06;7.30;57.90
2945;DHT22;1482;51.398;7.128;2023-03-20T05:37:33;7.40;1.00
2945;DHT22;1482;51.398;7.128;2023-03-20T05:39:58;7.30;10.10
2945;DHT22;1482;51.398;7.128;2023-03-20T05:42:24;7.20;1.00
2945;DHT22;1482;51.398;7.128;2023-03-20T05:44:50;7.20;27.30
2945;DHT22;1482;51.398;7.128;2023-03-20T05:47:15;7.10;99.90
2945;DHT22;1482;51.398;7.128;2023-03-20T05:49:41;7.20;99.90
2945;DHT22;1482;51.398;7.128;2023-03-20T05:52:06;7.10;99.90
2945;DHT22;1482;51.398;7.128;2023-03-20T05:54:32;7.20;99.90
2945;DHT22;1482;51.398;7.128;2023-03-20T05:56:57;7.20;99.90
2945;DHT22;1482;51.398;7.128;2023-03-20T05:59:23;7.30;99.90
2945;DHT22;1482;51.398;7.128;2023-03-20T06:01:48;7.40;99.90
2945;DHT22;1482;51.398;7.128;2023-03-20T06:04:14;7.50;7.60
2945;DHT22;1482;51.398;7.128;2023-03-20T06:06:40;7.30;45.30
2945;DHT22;1482;51.398;7.128;2023-03-20T06:09:06;7.40;1.00
2945;DHT22;1482;51.398;7.128;2023-03-20T06:11:31;7.40;1.00
2945;DHT22;1482;51.398;7.128;2023-03-20T06:13:57;7.30;1.00
2945;DHT22;1482;51.398;7.128;2023-03-20T06:16:23;7.40;18.20
2945;DHT22;1482;51.398;7.128;2023-03-20T06:18:49;7.40;1.00
2945;DHT22;1482;51.398;7.128;2023-03-20T06:21:15;7.50;1.00
2945;DHT22;1482;51.398;7.128;2023-03-20T06:23:40;7.50;1.00
2945;DHT22;1482;51.398;7.128;2023-03-20T06:26:06;7.50;1.00
2945;DHT22;1482;51.398;7.128;2023-03-20T06:28:32;7.50;1.00
2945;DHT22;1482;51.398;7.128;2023-03-20T06:30:58;7.60;1.00
2945;DHT22;1482;51.398;7.128;2023-03-20T06:33:23;7.70;1.00
2945;DHT22;1482;51.398;7.128;2023-03-20T06:35:49;7.80;1.00
2945;DHT22;1482;51.398;7.128;2023-03-20T06:38:14;8.00;99.90
2945;DHT22;1482;51.398;7.128;2023-03-20T06:40:40;7.90;99.90
2945;DHT22;1482;51.398;7.128;2023-03-20T06:43:07;7.80;99.90
2945;DHT22;1482;51.398;7.128;2023-03-20T06:45:33;7.70;99.90
2945;DHT22;1482;51.398;7.128;2023-03-20T06:47:58;7.80;99.90
2945;DHT22;1482;51.398;7.128;2023-03-20T06:50:24;7.80;99.90
2945;DHT22;1482;51.398;7.128;2023-03-20T06:52:50;7.80;99.90
2945;DHT22;1482;51.398;7.128;2023-03-20T06:55:16;7.70;99.90
2945;DHT22;1482;51.398;7.128;2023-03-20T06:57:42;7.70;99.90
2945;DHT22;1482;51.398;7.128;2023-03-20T07:00:08;7.70;1.00
2945;DHT22;1482;51.398;7.128;2023-03-20T07:02:34;7.80;1.00
2945;DHT22;1482;51.398;7.128;2023-03-20T07:05:00;7.90;99.90
2945;DHT22;1482;51.398;7.128;2023-03-20T07:07:26;8.00;99.90
2945;DHT22;1482;51.398;7.128;2023-03-20T07:09:51;8.10;99.90
2945;DHT22;1482;51.398;7.128;2023-03-20T07:12:17;8.20;99.90
2945;DHT22;1482;51.398;7.128;2023-03-20T07:14:45;8.40;99.90
2945;DHT22;1482;51.398;7.128;2023-03-20T07:17:11;8.60;99.90
2945;DHT22;1482;51.398;7.128;2023-03-20T07:19:37;8.60;99.90
2945;DHT22;1482;51.398;7.128;2023-03-20T07:22:06;9.00;99.90
2945;DHT22;1482;51.398;7.128;2023-03-20T07:24:33;9.20;99.90
2945;DHT22;1482;51.398;7.128;2023-03-20T07:26:59;9.40;99.90
2945;DHT22;1482;51.398;7.128;2023-03-20T07:29:25;9.30;99.90
2945;DHT22;1482;51.398;7.128;2023-03-20T07:31:50;9.60;99.90
2945;DHT22;1482;51.398;7.128;2023-03-20T07:34:16;9.00;91.60
2945;DHT22;1482;51.398;7.128;2023-03-20T07:36:42;9.20;99.90
2945;DHT22;1482;51.398;7.128;2023-03-20T07:39:08;9.10;99.90
2945;DHT22;1482;51.398;7.128;2023-03-20T07:41:34;9.30;99.90
2945;DHT22;1482;51.398;7.128;2023-03-20T07:44:00;9.30;97.70
2945;DHT22;1482;51.398;7.128;2023-03-20T07:46:26;9.50;99.90
2945;DHT22;1482;51.398;7.128;2023-03-20T07:48:51;9.50;98.90
2945;DHT22;1482;51.398;7.128;2023-03-20T07:51:17;9.60;98.90
2945;DHT22;1482;51.398;7.128;2023-03-20T07:53:42;9.80;75.00
2945;DHT22;1482;51.398;7.128;2023-03-20T07:56:08;9.90;48.80
2945;DHT22;1482;51.398;7.128;2023-03-20T07:58:34;10.00;37.00
2945;DHT22;1482;51.398;7.128;2023-03-20T08:01:00;10.20;25.00
2945;DHT22;1482;51.398;7.128;2023-03-20T08:03:28;10.30;21.50
2945;DHT22;1482;51.398;7.128;2023-03-20T08:05:53;10.30;22.20
2945;DHT22;1482;51.398;7.128;2023-03-20T08:08:19;10.50;19.50
2945;DHT22;1482;51.398;7.128;2023-03-20T08:10:45;10.10;1.00
2945;DHT22;1482;51.398;7.128;2023-03-20T08:13:10;10.20;5.40
2945;DHT22;1482;51.398;7.128;2023-03-20T08:15:36;10.30;10.80
2945;DHT22;1482;51.398;7.128;2023-03-20T08:18:01;10.40;3.00
2945;DHT22;1482;51.398;7.128;2023-03-20T08:20:27;10.40;1.00
2945;DHT22;1482;51.398;7.128;2023-03-20T08:22:52;10.60;1.00
2945;DHT22;1482;51.398;7.128;2023-03-20T08:25:18;10.80;1.00
2945;DHT22;1482;51.398;7.128;2023-03-20T08:27:44;11.30;1.00
2945;DHT22;1482;51.398;7.128;2023-03-20T08:30:10;12.10;1.00
2945;DHT22;1482;51.398;7.128;2023-03-20T08:32:37;12.60;1.00
2945;DHT22;1482;51.398;7.128;2023-03-20T08:35:03;12.80;1.00
2945;DHT22;1482;51.398;7.128;2023-03-20T08:37:28;12.60;1.00
2945;DHT22;1482;51.398;7.128;2023-03-20T08:39:54;12.50;1.00
2945;DHT22;1482;51.398;7.128;2023-03-20T08:42:20;11.80;1.00
2945;DHT22;1482;51.398;7.128;2023-03-20T08:44:46;11.70;1.00
2945;DHT22;1482;51.398;7.128;2023-03-20T08:47:12;11.10;1.00
2945;DHT22;1482;51.398;7.128;2023-03-20T08:49:38;11.10;1.00
2945;DHT22;1482;51.398;7.128;2023-03-20T08:52:03;11.10;1.00
2945;DHT22;1482;51.398;7.128;2023-03-20T08:54:29;11.00;1.00
2945;DHT22;1482;51.398;7.128;2023-03-20T08:56:55;11.10;1.00
2945;DHT22;1482;51.398;7.128;2023-03-20T08:59:20;11.10;1.00
2945;DHT22;1482;51.398;7.128;2023-03-20T09:01:46;11.00;1.00
2945;DHT22;1482;51.398;7.128;2023-03-20T09:04:12;11.10;1.00
2945;DHT22;1482;51.398;7.128;2023-03-20T09:06:38;11.20;1.00
2945;DHT22;1482;51.398;7.128;2023-03-20T09:09:04;11.00;1.00
2945;DHT22;1482;51.398;7.128;2023-03-20T09:11:30;10.80;1.00
2945;DHT22;1482;51.398;7.128;2023-03-20T09:13:56;10.90;1.00
2945;DHT22;1482;51.398;7.128;2023-03-20T09:16:22;10.90;1.00
2945;DHT22;1482;51.398;7.128;2023-03-20T09:18:47;10.70;1.00
2945;DHT22;1482;51.398;7.128;2023-03-20T09:21:13;10.60;1.00
2945;DHT22;1482;51.398;7.128;2023-03-20T09:23:39;10.50;1.00
2945;DHT22;1482;51.398;7.128;2023-03-20T09:26:04;10.30;1.00
2945;DHT22;1482;51.398;7.128;2023-03-20T09:28:30;10.60;1.00
2945;DHT22;1482;51.398;7.128;2023-03-20T09:30:57;10.70;1.00
2945;DHT22;1482;51.398;7.128;2023-03-20T09:33:23;10.70;1.00
2945;DHT22;1482;51.398;7.128;2023-03-20T09:35:48;10.50;1.00
2945;DHT22;1482;51.398;7.128;2023-03-20T09:38:14;10.60;1.00
2945;DHT22;1482;51.398;7.128;2023-03-20T09:40:59;10.70;1.00
2945;DHT22;1482;51.398;7.128;2023-03-20T09:43:35;10.80;1.00
2945;DHT22;1482;51.398;7.128;2023-03-20T09:46:23;10.80;1.00
2945;DHT22;1482;51.398;7.128;2023-03-20T09:51:45;10.70;1.00
2945;DHT22;1482;51.398;7.128;2023-03-20T09:54:41;10.50;1.00
2945;DHT22;1482;51.398;7.128;2023-03-20T09:57:18;10.40;1.00
2945;DHT22;1482;51.398;7.128;2023-03-20T09:59:46;10.50;1.00
2945;DHT22;1482;51.398;7.128;2023-03-20T10:02:17;10.50;1.00
2945;DHT22;1482;51.398;7.128;2023-03-20T10:04:50;10.70;1.00
2945;DHT22;1482;51.398;7.128;2023-03-20T10:07:17;10.70;1.00
2945;DHT22;1482;51.398;7.128;2023-03-20T10:09:43;10.80;1.00
2945;DHT22;1482;51.398;7.128;2023-03-20T10:20:29;10.80;1.00
2945;DHT22;1482;51.398;7.128;2023-03-20T10:23:02;10.80;1.00
2945;DHT22;1482;51.398;7.128;2023-03-20T10:25:34;10.80;1.00
2945;DHT22;1482;51.398;7.128;2023-03-20T10:28:13;10.90;1.00
2945;DHT22;1482;51.398;7.128;2023-03-20T10:41:24;11.00;1.00
2945;DHT22;1482;51.398;7.128;2023-03-20T10:43:50;10.90;1.00
2945;DHT22;1482;51.398;7.128;2023-03-20T10:46:32;11.10;1.00
2945;DHT22;1482;51.398;7.128;2023-03-20T10:49:05;11.20;1.00
2945;DHT22;1482;51.398;7.128;2023-03-20T10:51:47;11.30;1.00
2945;DHT22;1482;51.398;7.128;2023-03-20T10:54:26;11.60;1.00
2945;DHT22;1482;51.398;7.128;2023-03-20T10:56:54;11.70;1.00
2945;DHT22;1482;51.398;7.128;2023-03-20T10:59:26;11.40;1.00
2945;DHT22;1482;51.398;7.128;2023-03-20T11:01:52;11.40;1.00
2945;DHT22;1482;51.398;7.128;2023-03-20T11:04:18;11.60;1.00
2945;DHT22;1482;51.398;7.128;2023-03-20T11:06:57;11.60;1.00
2945;DHT22;1482;51.398;7.128;2023-03-20T11:09:25;11.80;1.00
2945;DHT22;1482;51.398;7.128;2023-03-20T11:11:56;11.40;1.00
2945;DHT22;1482;51.398;7.128;2023-03-20T11:14:35;11.40;1.00
2945;DHT22;1482;51.398;7.128;2023-03-20T11:17:03;11.50;1.00
2945;DHT22;1482;51.398;7.128;2023-03-20T11:19:34;11.60;1.00
2945;DHT22;1482;51.398;7.128;2023-03-20T11:22:22;11.40;1.00
2945;DHT22;1482;51.398;7.128;2023-03-20T11:24:57;11.30;1.00
2945;DHT22;1482;51.398;7.128;2023-03-20T11:27:31;11.70;1.00
2945;DHT22;1482;51.398;7.128;2023-03-20T11:30:00;11.50;1.00
2945;DHT22;1482;51.398;7.128;2023-03-20T11:32:37;11.60;1.00
2945;DHT22;1482;51.398;7.128;2023-03-20T11:37:48;11.40;1.00
2945;DHT22;1482;51.398;7.128;2023-03-20T11:40:31;11.60;1.00
2945;DHT22;1482;51.398;7.128;2023-03-20T11:45:27;11.80;1.00
2945;DHT22;1482;51.398;7.128;2023-03-20T11:48:00;11.40;1.00
2945;DHT22;1482;51.398;7.128;2023-03-20T11:50:43;11.40;1.00
2945;DHT22;1482;51.398;7.128;2023-03-20T11:53:40;11.00;1.00
2945;DHT22;1482;51.398;7.128;2023-03-20T11:56:12;11.00;1.00
2945;DHT22;1482;51.398;7.128;2023-03-20T11:58:55;11.00;1.00
2945;DHT22;1482;51.398;7.128;2023-03-20T12:01:21;10.80;1.00
2945;DHT22;1482;51.398;7.128;2023-03-20T12:03:51;11.00;1.00
2945;DHT22;1482;51.398;7.128;2023-03-20T12:06:27;11.30;1.00
2945;DHT22;1482;51.398;7.128;2023-03-20T12:09:04;11.10;1.00
2945;DHT22;1482;51.398;7.128;2023-03-20T12:14:32;10.80;1.00
2945;DHT22;1482;51.398;7.128;2023-03-20T12:19:41;10.70;1.00
2945;DHT22;1482;51.398;7.128;2023-03-20T12:22:23;10.90;1.00
2945;DHT22;1482;51.398;7.128;2023-03-20T12:27:35;10.60;1.00
2945;DHT22;1482;51.398;7.128;2023-03-20T12:30:03;10.40;1.00
2945;DHT22;1482;51.398;7.128;2023-03-20T12:32:52;10.40;1.00
2945;DHT22;1482;51.398;7.128;2023-03-20T12:35:30;10.50;1.00
2945;DHT22;1482;51.398;7.128;2023-03-20T12:37:57;10.70;1.00
2945;DHT22;1482;51.398;7.128;2023-03-20T12:40:33;10.70;1.00
2945;DHT22;1482;51.398;7.128;2023-03-20T12:43:13;10.90;1.00
2945;DHT22;1482;51.398;7.128;2023-03-20T12:45:46;11.00;1.00
2945;DHT22;1482;51.398;7.128;2023-03-20T12:48:36;10.90;1.00
2945;DHT22;1482;51.398;7.128;2023-03-20T12:54:37;10.70;1.00
2945;DHT22;1482;51.398;7.128;2023-03-20T13:05:14;10.50;1.00
2945;DHT22;1482;51.398;7.128;2023-03-20T13:07:57;10.50;1.00
2945;DHT22;1482;51.398;7.128;2023-03-20T13:10:35;10.40;1.00
2945;DHT22;1482;51.398;7.128;2023-03-20T13:13:43;10.20;1.00
2945;DHT22;1482;51.398;7.128;2023-03-20T13:21:47;10.20;1.00
2945;DHT22;1482;51.398;7.128;2023-03-20T13:30:23;10.40;1.00
2945;DHT22;1482;51.398;7.128;2023-03-20T13:38:44;10.50;1.00
2945;DHT22;1482;51.398;7.128;2023-03-20T13:41:12;10.50;1.00
2945;DHT22;1482;51.398;7.128;2023-03-20T13:46:11;10.40;1.00
2945;DHT22;1482;51.398;7.128;2023-03-20T13:48:38;10.50;1.00
2945;DHT22;1482;51.398;7.128;2023-03-20T13:54:06;9.90;1.00
2945;DHT22;1482;51.398;7.128;2023-03-20T14:04:51;9.80;1.00
2945;DHT22;1482;51.398;7.128;2023-03-20T14:07:28;9.80;1.00
2945;DHT22;1482;51.398;7.128;2023-03-20T14:09:54;9.60;1.00
2945;DHT22;1482;51.398;7.128;2023-03-20T14:12:24;9.60;1.00
2945;DHT22;1482;51.398;7.128;2023-03-20T14:14:58;9.60;1.00
2945;DHT22;1482;51.398;7.128;2023-03-20T14:17:29;9.70;1.00
2945;DHT22;1482;51.398;7.128;2023-03-20T14:19:56;9.80;1.00
2945;DHT22;1482;51.398;7.128;2023-03-20T14:22:26;9.80;1.00
2945;DHT22;1482;51.398;7.128;2023-03-20T14:24:58;10.10;1.00
2945;DHT22;1482;51.398;7.128;2023-03-20T14:27:29;10.10;1.00
2945;DHT22;1482;51.398;7.128;2023-03-20T14:30:35;10.20;1.00
2945;DHT22;1482;51.398;7.128;2023-03-20T14:38:43;10.00;1.00
2945;DHT22;1482;51.398;7.128;2023-03-20T14:46:53;10.20;1.00
2945;DHT22;1482;51.398;7.128;2023-03-20T14:49:51;10.00;1.00
2945;DHT22;1482;51.398;7.128;2023-03-20T14:52:34;10.00;1.00
2945;DHT22;1482;51.398;7.128;2023-03-20T14:57:46;10.00;1.00
2945;DHT22;1482;51.398;7.128;2023-03-20T15:00:23;10.30;1.00
2945;DHT22;1482;51.398;7.128;2023-03-20T15:02:52;10.40;1.00
2945;DHT22;1482;51.398;7.128;2023-03-20T15:05:25;10.30;1.00
2945;DHT22;1482;51.398;7.128;2023-03-20T15:07:55;10.30;1.00
2945;DHT22;1482;51.398;7.128;2023-03-20T15:10:23;10.30;1.00
2945;DHT22;1482;51.398;7.128;2023-03-20T15:12:50;10.20;1.00
2945;DHT22;1482;51.398;7.128;2023-03-20T15:15:28;10.00;1.00
2945;DHT22;1482;51.398;7.128;2023-03-20T15:18:01;10.00;1.00
2945;DHT22;1482;51.398;7.128;2023-03-20T15:20:27;10.20;1.00
2945;DHT22;1482;51.398;7.128;2023-03-20T15:25:20;10.30;1.00
2945;DHT22;1482;51.398;7.128;2023-03-20T15:27:47;10.30;1.00
2945;DHT22;1482;51.398;7.128;2023-03-20T15:30:16;10.30;1.00
2945;DHT22;1482;51.398;7.128;2023-03-20T15:32:43;10.10;1.00
2945;DHT22;1482;51.398;7.128;2023-03-20T15:35:15;10.20;1.00
2945;DHT22;1482;51.398;7.128;2023-03-20T15:37:44;10.20;1.00
2945;DHT22;1482;51.398;7.128;2023-03-20T15:40:13;10.30;1.00
2945;DHT22;1482;51.398;7.128;2023-03-20T15:45:34;10.20;1.00
2945;DHT22;1482;51.398;7.128;2023-03-20T15:48:04;10.30;1.00
2945;DHT22;1482;51.398;7.128;2023-03-20T15:50:33;10.10;1.00
2945;DHT22;1482;51.398;7.128;2023-03-20T15:52:59;10.10;1.00
2945;DHT22;1482;51.398;7.128;2023-03-20T15:55:25;9.90;1.00
2945;DHT22;1482;51.398;7.128;2023-03-20T15:57:55;9.70;1.00
2945;DHT22;1482;51.398;7.128;2023-03-20T16:02:50;9.80;13.20
2945;DHT22;1482;51.398;7.128;2023-03-20T16:05:17;9.70;7.50
2945;DHT22;1482;51.398;7.128;2023-03-20T16:07:43;9.70;13.80
2945;DHT22;1482;51.398;7.128;2023-03-20T16:10:32;9.70;20.50
2945;DHT22;1482;51.398;7.128;2023-03-20T16:13:03;9.90;13.40
2945;DHT22;1482;51.398;7.128;2023-03-20T16:15:30;9.80;5.70
2945;DHT22;1482;51.398;7.128;2023-03-20T16:17:59;9.60;12.40
2945;DHT22;1482;51.398;7.128;2023-03-20T16:20:29;9.80;17.40
2945;DHT22;1482;51.398;7.128;2023-03-20T16:22:59;9.70;9.40
2945;DHT22;1482;51.398;7.128;2023-03-20T16:25:26;9.70;11.20
2945;DHT22;1482;51.398;7.128;2023-03-20T16:27:52;9.70;20.60
2945;DHT22;1482;51.398;7.128;2023-03-20T16:30:22;9.60;19.20
2945;DHT22;1482;51.398;7.128;2023-03-20T16:32:55;9.60;29.50
2945;DHT22;1482;51.398;7.128;2023-03-20T16:35:29;9.50;38.30
2945;DHT22;1482;51.398;7.128;2023-03-20T16:37:59;9.50;58.20
2945;DHT22;1482;51.398;7.128;2023-03-20T16:40:35;9.50;77.10
2945;DHT22;1482;51.398;7.128;2023-03-20T16:45:45;9.40;86.80
2945;DHT22;1482;51.398;7.128;2023-03-20T16:48:24;9.40;92.90
2945;DHT22;1482;51.398;7.128;2023-03-20T16:51:14;9.40;99.90
2945;DHT22;1482;51.398;7.128;2023-03-20T16:53:44;9.50;99.90
2945;DHT22;1482;51.398;7.128;2023-03-20T16:56:16;9.50;95.60
2945;DHT22;1482;51.398;7.128;2023-03-20T16:58:44;9.40;99.60
2945;DHT22;1482;51.398;7.128;2023-03-20T17:01:15;9.40;99.90
2945;DHT22;1482;51.398;7.128;2023-03-20T17:06:27;9.40;99.90
2945;DHT22;1482;51.398;7.128;2023-03-20T17:08:58;9.50;99.90
2945;DHT22;1482;51.398;7.128;2023-03-20T17:11:35;9.50;99.90
2945;DHT22;1482;51.398;7.128;2023-03-20T17:14:01;9.30;99.90
2945;DHT22;1482;51.398;7.128;2023-03-20T17:16:29;9.30;99.90
2945;DHT22;1482;51.398;7.128;2023-03-20T17:21:32;9.30;99.90
2945;DHT22;1482;51.398;7.128;2023-03-20T17:23:58;9.30;99.90
2945;DHT22;1482;51.398;7.128;2023-03-20T17:26:24;9.30;99.90
2945;DHT22;1482;51.398;7.128;2023-03-20T17:28:50;9.30;99.90
2945;DHT22;1482;51.398;7.128;2023-03-20T17:31:16;9.30;99.90
2945;DHT22;1482;51.398;7.128;2023-03-20T17:33:43;9.20;99.90
2945;DHT22;1482;51.398;7.128;2023-03-20T17:36:30;9.30;99.90
2945;DHT22;1482;51.398;7.128;2023-03-20T17:38:57;9.20;99.90
2945;DHT22;1482;51.398;7.128;2023-03-20T17:41:23;9.20;99.90
2945;DHT22;1482;51.398;7.128;2023-03-20T17:43:50;9.10;99.90
2945;DHT22;1482;51.398;7.128;2023-03-20T17:46:27;9.10;99.90
2945;DHT22;1482;51.398;7.128;2023-03-20T17:48:59;9.20;99.90
2945;DHT22;1482;51.398;7.128;2023-03-20T17:51:25;9.30;99.90
2945;DHT22;1482;51.398;7.128;2023-03-20T17:53:50;9.20;99.90
2945;DHT22;1482;51.398;7.128;2023-03-20T17:56:24;9.10;99.90
2945;DHT22;1482;51.398;7.128;2023-03-20T17:58:49;9.10;98.20
2945;DHT22;1482;51.398;7.128;2023-03-20T18:01:16;9.20;99.90
2945;DHT22;1482;51.398;7.128;2023-03-20T18:03:41;9.20;99.90
2945;DHT22;1482;51.398;7.128;2023-03-20T18:06:15;9.20;99.90
2945;DHT22;1482;51.398;7.128;2023-03-20T18:08:42;9.20;99.90
2945;DHT22;1482;51.398;7.128;2023-03-20T18:11:08;9.30;86.10
2945;DHT22;1482;51.398;7.128;2023-03-20T18:13:33;9.20;81.10
2945;DHT22;1482;51.398;7.128;2023-03-20T18:15:59;9.30;78.70
2945;DHT22;1482;51.398;7.128;2023-03-20T18:18:24;9.30;71.90
2945;DHT22;1482;51.398;7.128;2023-03-20T18:20:50;9.20;65.30
2945;DHT22;1482;51.398;7.128;2023-03-20T18:23:17;9.20;51.00
2945;DHT22;1482;51.398;7.128;2023-03-20T18:25:42;9.20;53.90
2945;DHT22;1482;51.398;7.128;2023-03-20T18:28:13;9.20;38.50
2945;DHT22;1482;51.398;7.128;2023-03-20T18:30:44;9.20;44.80
2945;DHT22;1482;51.398;7.128;2023-03-20T18:33:10;9.20;38.90
2945;DHT22;1482;51.398;7.128;2023-03-20T18:35:36;9.20;32.90
2945;DHT22;1482;51.398;7.128;2023-03-20T18:38:02;9.20;44.60
2945;DHT22;1482;51.398;7.128;2023-03-20T18:40:31;9.20;40.10
2945;DHT22;1482;51.398;7.128;2023-03-20T18:42:57;9.30;43.30
2945;DHT22;1482;51.398;7.128;2023-03-20T18:45:25;9.30;34.60
2945;DHT22;1482;51.398;7.128;2023-03-20T18:47:52;9.40;36.40
2945;DHT22;1482;51.398;7.128;2023-03-20T18:50:19;9.40;26.90
2945;DHT22;1482;51.398;7.128;2023-03-20T18:52:46;9.30;21.70
2945;DHT22;1482;51.398;7.128;2023-03-20T18:55:12;9.30;33.50